createdAt,value
2022-12-08T00:00:26.217Z,93243.13
2022-12-08T00:05:49.614Z,93259.50
2022-12-08T00:10:53.660Z,93250.78
2022-12-08T00:16:01.556Z,93261.66
2022-12-08T00:21:05.004Z,93253.81
2022-12-08T00:26:08.577Z,93253.47
2022-12-08T00:31:12.836Z,93254.25
2022-12-08T00:36:16.361Z,93255.78
2022-12-08T00:41:40.797Z,93265.47
2022-12-08T00:46:44.273Z,93265.69
2022-12-08T00:51:48.255Z,93258.03
2022-12-08T00:56:52.278Z,93275.91
2022-12-08T01:01:55.219Z,93270.06
2022-12-08T01:06:58.298Z,93266.44
2022-12-08T01:12:02.096Z,93275.56
2022-12-08T01:17:05.176Z,93265.25
2022-12-08T01:22:08.995Z,93277.59
2022-12-08T01:27:12.238Z,93273.63
2022-12-08T01:32:15.245Z,93272.53
2022-12-08T01:37:18.704Z,93272.25
2022-12-08T01:42:23.377Z,93269.16
2022-12-08T01:47:35.540Z,93270.44
2022-12-08T01:52:43.608Z,93259.22
2022-12-08T01:57:54.412Z,93253.53
2022-12-08T02:03:02.529Z,93258.19
2022-12-08T02:08:11.301Z,93257.84
2022-12-08T02:13:17.581Z,93254.69
2022-12-08T02:18:38.784Z,93239.09
2022-12-08T02:24:04.792Z,93247.88
2022-12-08T02:30:02.163Z,93231.91
2022-12-08T02:35:18.737Z,93249.69
2022-12-08T02:40:52.305Z,93248.09
2022-12-08T02:46:01.980Z,93237.50
2022-12-08T02:51:06.208Z,93222.25
2022-12-08T02:56:24.442Z,93222.91
2022-12-08T03:01:46.797Z,93219.00
2022-12-08T03:07:15.239Z,93220.25
2022-12-08T03:12:53.643Z,93219.41
2022-12-08T03:17:59.673Z,93227.97
2022-12-08T03:23:08.080Z,93237.19
2022-12-08T03:28:13.177Z,93234.41
2022-12-08T03:33:36.061Z,93238.28
2022-12-08T03:38:44.257Z,93226.50
2022-12-08T03:43:48.434Z,93238.63
2022-12-08T03:48:52.270Z,93238.63
2022-12-08T03:53:55.413Z,93217.03
2022-12-08T03:58:59.530Z,93232.25
2022-12-08T04:04:03.213Z,93235.63
2022-12-08T04:09:06.831Z,93236.66
2022-12-08T04:14:10.595Z,93242.59
2022-12-08T04:19:14.023Z,93245.09
2022-12-08T04:24:17.029Z,93241.63
2022-12-08T04:29:20.087Z,93234.69
2022-12-08T04:34:23.292Z,93238.59
2022-12-08T04:39:26.293Z,93248.75
2022-12-08T04:44:29.780Z,93261.16
2022-12-08T04:49:33.202Z,93256.22
2022-12-08T04:54:36.336Z,93265.22
2022-12-08T04:59:39.642Z,93273.34
2022-12-08T05:04:42.670Z,93271.84
2022-12-08T05:09:45.641Z,93282.63
2022-12-08T05:14:50.967Z,93286.06
2022-12-08T05:19:54.964Z,93284.69
2022-12-08T05:24:57.937Z,93293.59
2022-12-08T05:30:02.257Z,93269.84
2022-12-08T05:35:05.896Z,93291.19
2022-12-08T05:40:09.292Z,93298.47
2022-12-08T05:45:12.902Z,93302.16
2022-12-08T05:50:16.418Z,93302.25
2022-12-08T05:55:19.687Z,93305.09
2022-12-08T06:00:22.956Z,93303.03
2022-12-08T06:05:26.021Z,93310.88
2022-12-08T06:10:29.854Z,93317.34
2022-12-08T06:15:35.448Z,93337.19
2022-12-08T06:20:38.454Z,93332.94
2022-12-08T06:25:41.849Z,93333.69
2022-12-08T06:30:45.479Z,93343.19
2022-12-08T06:35:48.528Z,93345.09
2022-12-08T06:40:56.031Z,93345.91
2022-12-08T06:45:59.523Z,93337.34
2022-12-08T06:51:11.261Z,93333.41
2022-12-08T06:56:16.312Z,93347.09
2022-12-08T07:01:19.894Z,93353.78
2022-12-08T07:06:24.701Z,93359.72
2022-12-08T07:11:27.876Z,93353.09
2022-12-08T07:16:31.647Z,93364.63
2022-12-08T07:21:36.237Z,93365.75
2022-12-08T07:26:40.230Z,93360.78
2022-12-08T07:31:43.437Z,93349.59
2022-12-08T07:36:46.683Z,93359.16
2022-12-08T07:41:49.655Z,93343.03
2022-12-08T07:46:52.590Z,93343.84
2022-12-08T07:51:56.656Z,93344.84
2022-12-08T07:57:00.362Z,93349.19
2022-12-08T08:02:22.886Z,93348.63
2022-12-08T08:07:27.364Z,93361.25
2022-12-08T08:12:32.068Z,93367.38
2022-12-08T08:17:37.864Z,93365.28
2022-12-08T08:22:41.210Z,93368.19
2022-12-08T08:27:44.486Z,93365.56
2022-12-08T08:32:47.960Z,93371.56
2022-12-08T08:37:51.450Z,93358.53
2022-12-08T08:42:54.573Z,93384.28
2022-12-08T08:47:58.112Z,93387.84
2022-12-08T08:53:01.408Z,93397.34
2022-12-08T08:58:05.066Z,93389.09
2022-12-08T09:03:08.657Z,93384.69
2022-12-08T09:08:12.143Z,93385.03
2022-12-08T09:13:15.816Z,93390.28
2022-12-08T09:18:19.011Z,93385.00
2022-12-08T09:23:23.304Z,93384.16
2022-12-08T09:28:26.856Z,93397.28
2022-12-08T09:33:30.110Z,93386.63
2022-12-08T09:38:33.625Z,93383.53
2022-12-08T09:43:52.705Z,93390.72
2022-12-08T09:48:58.503Z,93377.03
2022-12-08T09:54:08.288Z,93377.25
2022-12-08T09:59:23.435Z,93376.63
2022-12-08T10:04:32.846Z,93368.13
2022-12-08T10:09:42.229Z,93366.16
2022-12-08T10:14:56.143Z,93348.44
2022-12-08T10:20:11.915Z,93339.19
2022-12-08T10:25:28.873Z,93335.50
2022-12-08T10:30:32.322Z,93337.56
2022-12-08T10:35:50.471Z,93330.44
2022-12-08T10:41:01.727Z,93324.44
2022-12-08T10:46:16.740Z,93328.38
2022-12-08T10:51:35.698Z,93328.22
2022-12-08T10:56:38.808Z,93313.66
2022-12-08T11:01:45.835Z,93320.03
2022-12-08T11:06:51.818Z,93326.19
2022-12-08T11:11:58.388Z,93322.19
2022-12-08T11:17:09.682Z,93319.44
2022-12-08T11:22:45.947Z,93310.03
2022-12-08T11:27:51.828Z,93301.50
2022-12-08T11:33:00.691Z,93289.38
2022-12-08T11:38:21.177Z,93288.53
2022-12-08T11:43:34.566Z,93281.00
2022-12-08T11:48:47.568Z,93285.63
2022-12-08T11:54:09.272Z,93275.25
2022-12-08T11:59:19.606Z,93270.69
2022-12-08T12:51:35.932Z,93228.28
2022-12-08T12:56:49.317Z,93228.34
2022-12-08T13:01:55.392Z,93218.00
2022-12-08T13:06:59.551Z,93226.13
2022-12-08T13:12:10.931Z,93219.69
2022-12-08T13:17:46.160Z,93219.56
2022-12-08T15:17:43.144Z,93314.94
2022-12-08T15:22:46.381Z,93321.03
2022-12-08T15:27:50.683Z,93312.63
2022-12-08T15:32:56.243Z,93322.31
2022-12-08T15:37:59.378Z,93328.53
2022-12-08T15:43:02.422Z,93334.66
2022-12-08T15:48:06.224Z,93335.00
2022-12-08T15:53:11.421Z,93345.31
2022-12-08T16:21:22.744Z,93361.19
2022-12-08T16:31:42.297Z,93360.34
2022-12-08T16:36:45.733Z,93369.31
2022-12-08T16:42:07.994Z,93373.50
2022-12-08T16:47:11.861Z,93383.22
2022-12-08T16:52:17.816Z,93384.41
2022-12-08T16:57:21.864Z,93384.13
2022-12-08T17:02:25.988Z,93370.84
2022-12-08T17:07:29.089Z,93379.47
2022-12-08T17:12:32.875Z,93384.56
2022-12-08T17:17:37.367Z,93389.66
2022-12-08T17:22:41.167Z,93385.72
2022-12-08T17:27:45.047Z,93391.34
2022-12-08T17:32:48.959Z,93380.28
2022-12-08T17:37:52.691Z,93392.28
2022-12-08T17:42:56.057Z,93407.78
2022-12-08T17:48:00.181Z,93410.91
2022-12-08T17:53:03.757Z,93409.00
2022-12-08T17:58:08.923Z,93405.94
2022-12-08T18:03:12.608Z,93417.44
2022-12-08T18:08:16.272Z,93417.19
2022-12-08T18:13:19.908Z,93422.38
2022-12-08T18:18:23.500Z,93422.28
2022-12-08T18:23:27.598Z,93429.06
2022-12-08T18:28:31.420Z,93442.09
2022-12-08T18:33:34.679Z,93435.47
2022-12-08T18:38:39.463Z,93437.06
2022-12-08T18:43:43.292Z,93438.63
2022-12-08T18:48:50.345Z,93430.03
2022-12-08T18:53:53.923Z,93434.72
2022-12-08T18:59:03.317Z,93424.13
2022-12-08T19:04:28.043Z,93449.56
2022-12-08T19:09:32.390Z,93439.81
2022-12-08T19:14:36.298Z,93441.84
2022-12-08T19:19:39.374Z,93436.44
2022-12-08T19:24:43.284Z,93433.31
2022-12-08T19:29:47.267Z,93447.00
2022-12-08T19:34:50.826Z,93439.59
2022-12-08T19:40:12.671Z,93457.94
2022-12-08T19:45:21.730Z,93445.44
2022-12-08T19:50:37.189Z,93382.91
2022-12-08T19:55:41.986Z,93444.66
2022-12-08T20:00:45.767Z,93453.66
2022-12-08T20:05:52.933Z,93451.72
2022-12-08T20:10:59.293Z,93441.53
2022-12-08T20:16:02.669Z,93433.31
2022-12-08T20:21:07.124Z,93432.94
2022-12-08T20:26:13.629Z,93439.59
2022-12-08T20:31:26.241Z,93433.34
2022-12-08T20:36:29.817Z,93448.97
2022-12-08T20:41:37.695Z,93438.03
2022-12-08T20:46:49.084Z,93446.63
2022-12-08T20:51:52.892Z,93438.81
2022-12-08T20:56:57.014Z,93444.28
2022-12-08T21:02:01.316Z,93441.16
2022-12-08T21:07:05.274Z,93420.41
2022-12-08T21:12:08.483Z,93422.78
2022-12-08T21:17:11.912Z,93430.22
2022-12-08T21:22:15.197Z,93432.56
2022-12-08T21:27:18.459Z,93436.09
2022-12-08T21:32:27.046Z,93445.09
2022-12-08T21:37:34.769Z,93449.78
2022-12-08T21:42:44.350Z,93454.81
2022-12-08T21:47:49.459Z,93438.44
2022-12-08T21:52:53.251Z,93448.56
2022-12-08T21:57:57.546Z,93463.47
2022-12-08T22:03:01.369Z,93449.38
2022-12-08T22:08:05.575Z,93448.59
2022-12-08T22:13:09.298Z,93430.59
2022-12-08T22:18:13.394Z,93446.25
2022-12-08T22:23:17.081Z,93446.66
2022-12-08T22:28:20.803Z,93451.72
2022-12-08T22:33:24.800Z,93447.44
2022-12-08T22:38:28.830Z,93444.28
2022-12-08T22:43:32.214Z,93439.59
2022-12-08T22:48:36.036Z,93447.44
2022-12-08T22:53:39.690Z,93443.53
2022-12-08T22:58:44.468Z,93431.34
2022-12-08T23:03:48.643Z,93443.50
2022-12-08T23:08:53.208Z,93448.56
2022-12-08T23:13:58.152Z,93437.63
2022-12-08T23:19:01.614Z,93412.22
2022-12-08T23:24:05.307Z,93411.44
2022-12-08T23:29:09.687Z,93412.22
2022-12-08T23:34:13.407Z,93404.41
2022-12-08T23:39:17.213Z,93401.25
2022-12-08T23:44:22.980Z,93400.88
2022-12-08T23:49:26.498Z,93403.63
2022-12-08T23:54:29.658Z,93400.50
2022-12-08T23:59:33.715Z,93382.13
